100LL.CA
Aviation Fuel Pricing for Canadians
Please upgrade your browser - Tested with IE9, FireFox, Chrome, Safari

Fuel Prices Airport Info Airport List METAR / TAF Kneeboard RSS

Reference Airport: Attawapiskat, ON
N 52 55 39   W 082 25 55

CYAT Attawapiskat, ON
WEATHER
METARCYAT 221328Z AUTO /////KT 6SM HZ OVC002 M34/M38 A3059 RMK WND MISG SLP363
TAFTAF CYAT 221339Z 2214/2220 VRB03KT 5SM BR OVC002 TEMPO 2214/2217 6SM IC OVC008 FM221700 14007KT 5SM IC BR BKN004 TEMPO 2217/2220 P6SM NSW BKN010 RMK FCST BASED ON AUTO OBS. WND SENSORS INOP. NXT FCST WILL BE ISSUED AT 230945Z
REF N 52 55 39  W 082 25 55    Adj NW    12W
UTC-5(4)    Elev 30    A5018 LO3 HI1 HI4 CAP
OPR Govt of Ontario 807-473-2082
Cert
PFC-1,2,4,5
FLT PLN NOTAM FILE CYAT
FIC London 866-WXBRIEF (Toll free within Canada) or 866-541-4104 (Toll free within Canada & USA)
WXMETAR AUTO H24 (see COMM) WxCam TAF 10-20Z (DT 09-19Z), issue times: 0940, 1340Z (DT 0840, 1240Z)
SERVICES
RWY DATARwy 06(061)/24(241) 3495x100 gravel
RCROpr 13-22Z Mon-Fri exc hols. APM 705-997-2124 Rwy cond subject to seasonal & climatic vars.
LIGHTING06-(TE ME) AP, 24-(TE ME) AP ARCAL-122.8 type K
COMM
DRCOLondon rdo 126.7 (FISE)
ATFtfc 122.8 5NM 3000 ASL
AWOS128.775
NAV
NDBWAPISK YAT 260 (M) N52 55 49 W82 26 00
CAUTIONP-lines 55 AGL on apch 1870 fr the thld of Rwy 06.
Effective 0901Z 07 December 2017 to 0901Z 01 February 2018